This is the latest recevied weather packets stored in our database for station/object KC2BRB-1. If no packets are shown the sender has not sent any weather packets the latest 10 day(s).
| Time | Temp. | Humidity | Pressure | Rain* | Wind** | Luminosity | Snow |
|---|---|---|---|---|---|---|---|
| 1777691607 | 22.78° C | 89% | 1009 hPa | 0 mm | - | - | - |
| 1777691557 | 22.78° C | 89% | 1009 hPa | 0 mm | - | - | - |
| 1777691419 | 22.78° C | 89% | 1009.2 hPa | 0 mm | - | - | - |
| 1777691258 | 22.78° C | 89% | 1009 hPa | 0 mm | - | - | - |
| 1777690957 | 22.78° C | 89% | 1009.2 hPa | 0 mm | - | - | - |
| 1777690793 | 22.78° C | 88% | 1009.2 hPa | 0 mm | - | - | - |
| 1777690657 | 22.78° C | 89% | 1009.2 hPa | 0 mm | - | - | - |
| 1777690357 | 22.78° C | 88% | 1009.2 hPa | 0 mm | - | - | - |
| 1777690058 | 22.78° C | 88% | 1009.2 hPa | 0 mm | - | - | - |
| 1777689757 | 22.78° C | 88% | 1009.2 hPa | 4.83 mm | - | - | - |
| 1777689457 | 22.78° C | 88% | 1009.2 hPa | 4.83 mm | - | - | - |
| 1777689157 | 22.78° C | 88% | 1009.1 hPa | 22.35 mm | - | - | - |
| 1777688558 | 22.22° C | 89% | 1009.1 hPa | 33.27 mm | - | - | - |
| 1777688257 | 22.22° C | 89% | 1009.1 hPa | 33.27 mm | - | - | - |
| 1777687958 | 22.22° C | 89% | 1009 hPa | 33.27 mm | - | - | - |
| 1777687658 | 22.22° C | 89% | 1009 hPa | 33.27 mm | - | - | - |
| 1777687358 | 22.22° C | 89% | 1008.8 hPa | 33.27 mm | - | - | - |
| 1777687058 | 22.22° C | 89% | 1008.8 hPa | 33.27 mm | - | - | - |
| 1777687004 | 22.22° C | 87% | 1008.8 hPa | 33.27 mm | - | - | - |
| 1777686757 | 22.22° C | 87% | 1008.8 hPa | 33.27 mm | - | - | - |
| 1777686458 | 22.22° C | 87% | 1008.8 hPa | 33.27 mm | - | - | - |
| 1777686158 | 23.89° C | 84% | 1008.8 hPa | 28.45 mm | - | - | - |
| 1777686107 | 23.89° C | 84% | 1008.8 hPa | 28.45 mm | - | - | - |
| 1777685858 | 23.89° C | 84% | 1008.8 hPa | 28.45 mm | - | - | - |
| 1777685804 | 25° C | 78% | 1008.6 hPa | 10.92 mm | - | - | - |
* Rain latest hour (hover to see other rain measurements)
** Current wind speed in m/s (hover to see current wind gust speed)